createdAt,value
2023-12-18T00:00:30.828Z,5.25
2023-12-18T00:10:24.019Z,4.57
2023-12-18T00:12:56.312Z,6.78
2023-12-18T00:15:30.778Z,5.03
2023-12-18T00:22:00.777Z,5.72
2023-12-18T00:24:27.546Z,5.85
2023-12-18T00:26:58.249Z,4.82
2023-12-18T00:29:50.676Z,6.10
2023-12-18T00:32:36.117Z,4.70
2023-12-18T00:35:33.682Z,4.50
2023-12-18T00:40:28.294Z,4.70
2023-12-18T00:41:22.885Z,5.20
2023-12-18T00:44:12.503Z,5.47
2023-12-18T00:50:56.593Z,4.90
2023-12-18T00:53:25.603Z,4.88
2023-12-18T00:55:53.672Z,5.38
2023-12-18T00:58:24.391Z,5.13
2023-12-18T01:00:54.647Z,4.85
2023-12-18T01:07:26.964Z,4.13
2023-12-18T01:09:59.885Z,5.15
2023-12-18T01:12:32.713Z,3.88
2023-12-18T01:15:07.766Z,4.53
2023-12-18T01:17:44.149Z,5.20
2023-12-18T01:20:18.089Z,5.78
2023-12-18T01:23:34.512Z,4.45
2023-12-18T01:26:05.683Z,4.78
2023-12-18T01:28:36.157Z,5.32
2023-12-18T01:31:03.271Z,5.53
2023-12-18T01:34:02.977Z,5.25
2023-12-18T01:37:01.331Z,5.35
2023-12-18T01:46:28.983Z,4.78
2023-12-18T01:51:54.632Z,5.80
2023-12-18T01:54:28.697Z,4.40
2023-12-18T02:00:53.698Z,3.88
2023-12-18T02:03:35.012Z,5.53
2023-12-18T02:06:31.270Z,5.70
2023-12-18T02:09:03.737Z,5.15
2023-12-18T02:11:33.328Z,4.82
2023-12-18T02:14:03.408Z,5.30
2023-12-18T02:17:24.784Z,4.25
2023-12-18T02:24:47.038Z,4.95
2023-12-18T02:28:04.781Z,4.68
2023-12-18T02:31:22.034Z,4.43
2023-12-18T02:34:38.734Z,3.60
2023-12-18T02:37:10.422Z,4.45
2023-12-18T02:39:37.614Z,5.63
2023-12-18T02:42:07.780Z,4.93
2023-12-18T02:45:49.559Z,5.10
2023-12-18T02:49:07.012Z,3.90
2023-12-18T02:53:02.797Z,4.65
2023-12-18T02:56:39.539Z,3.95
2023-12-18T02:59:07.152Z,3.92
2023-12-18T03:02:01.302Z,5.07
2023-12-18T03:04:31.858Z,4.30
2023-12-18T03:07:04.499Z,5.22
2023-12-18T03:09:31.676Z,5.00
2023-12-18T03:12:04.553Z,4.80
2023-12-18T03:14:31.681Z,4.38
2023-12-18T03:24:22.984Z,5.15
2023-12-18T03:27:08.268Z,4.68
2023-12-18T03:33:20.479Z,4.57
2023-12-18T03:36:31.274Z,3.83
2023-12-18T03:39:40.335Z,3.97
2023-12-18T03:50:06.672Z,4.50
2023-12-18T03:57:31.701Z,3.85
2023-12-18T04:04:17.821Z,4.05
2023-12-18T04:13:21.325Z,3.40
2023-12-18T04:28:23.829Z,5.13
2023-12-18T04:31:20.219Z,3.65
2023-12-18T04:34:03.996Z,4.07
2023-12-18T04:47:33.670Z,5.20
2023-12-18T04:50:01.909Z,5.22
2023-12-18T04:56:29.164Z,5.50
2023-12-18T05:07:31.906Z,6.38
2023-12-18T05:10:03.248Z,5.78
2023-12-18T05:12:31.732Z,5.60
2023-12-18T05:15:03.726Z,5.95
2023-12-18T05:22:03.456Z,4.82
2023-12-18T05:25:00.288Z,5.10
2023-12-18T05:27:33.078Z,6.00
2023-12-18T05:30:06.993Z,5.78
2023-12-18T05:32:38.596Z,5.55
2023-12-18T05:35:07.863Z,5.70
2023-12-18T05:37:37.067Z,6.05
2023-12-18T05:41:19.148Z,6.68
2023-12-18T05:43:38.494Z,5.85
2023-12-18T05:52:20.816Z,8.77
2023-12-18T05:54:53.131Z,9.23
2023-12-18T05:57:20.516Z,12.70
2023-12-18T06:01:33.057Z,8.52
2023-12-18T06:05:09.790Z,7.72
2023-12-18T06:22:34.573Z,5.55
2023-12-18T06:32:09.350Z,6.32
2023-12-18T06:35:54.693Z,5.38
2023-12-18T06:43:02.816Z,7.68
2023-12-18T06:45:34.889Z,6.10
2023-12-18T06:48:07.963Z,6.95
2023-12-18T06:51:04.026Z,6.35
2023-12-18T06:58:20.599Z,6.15
2023-12-18T07:01:16.192Z,6.45
2023-12-18T07:07:03.689Z,6.32
2023-12-18T07:12:41.522Z,5.32
2023-12-18T07:18:28.527Z,6.40
2023-12-18T07:21:29.689Z,4.90
2023-12-18T07:25:02.850Z,5.60
2023-12-18T07:30:46.093Z,5.63
2023-12-18T07:34:12.002Z,5.82
2023-12-18T07:37:03.892Z,5.43
2023-12-18T07:40:59.458Z,7.00
2023-12-18T07:49:24.740Z,5.75
2023-12-18T07:52:43.645Z,6.32
2023-12-18T07:55:31.312Z,5.55
2023-12-18T07:58:00.640Z,6.07
2023-12-18T08:00:55.012Z,6.07
2023-12-18T08:03:33.730Z,6.00
2023-12-18T08:11:03.838Z,5.18
2023-12-18T08:13:49.768Z,5.18
2023-12-18T08:16:55.966Z,6.22
2023-12-18T08:19:27.268Z,5.63
2023-12-18T08:22:37.960Z,5.97
2023-12-18T08:25:07.791Z,5.80
2023-12-18T08:27:35.685Z,6.28
2023-12-18T08:30:27.153Z,5.70
2023-12-18T08:33:19.910Z,5.80
2023-12-18T08:35:59.889Z,5.90
2023-12-18T08:38:29.182Z,5.72
2023-12-18T08:41:02.022Z,6.38
2023-12-18T08:47:04.606Z,5.10
2023-12-18T08:49:31.321Z,5.30
2023-12-18T08:52:01.191Z,5.90
2023-12-18T08:54:27.801Z,6.07
2023-12-18T08:56:54.429Z,6.15
2023-12-18T08:59:25.504Z,5.85
2023-12-18T09:01:58.534Z,6.57
2023-12-18T09:04:25.332Z,6.10
2023-12-18T09:06:51.977Z,5.70
2023-12-18T09:09:21.710Z,6.03
2023-12-18T09:11:48.341Z,5.68
2023-12-18T09:14:15.044Z,6.72
2023-12-18T09:16:46.830Z,5.72
2023-12-18T09:19:13.799Z,5.68
2023-12-18T09:21:40.496Z,6.00
2023-12-18T09:27:15.972Z,6.00
2023-12-18T09:30:09.033Z,6.75
2023-12-18T09:32:36.337Z,5.38
2023-12-18T09:35:37.697Z,5.22
2023-12-18T09:38:05.519Z,6.55
2023-12-18T09:40:57.804Z,5.53
2023-12-18T09:43:30.688Z,6.28
2023-12-18T09:46:24.624Z,5.65
2023-12-18T09:49:00.751Z,6.65
2023-12-18T09:54:16.010Z,5.43
2023-12-18T09:56:44.613Z,5.25
2023-12-18T10:02:13.367Z,5.60
2023-12-18T10:04:43.569Z,4.97
2023-12-18T10:07:10.208Z,5.45
2023-12-18T10:09:37.139Z,6.20
2023-12-18T10:12:06.648Z,5.93
2023-12-18T10:14:34.979Z,5.70
2023-12-18T10:17:02.294Z,5.53
2023-12-18T10:19:29.395Z,6.13
2023-12-18T10:22:02.306Z,6.68
2023-12-18T10:24:54.502Z,5.97
2023-12-18T10:27:34.152Z,5.00
2023-12-18T10:30:29.202Z,5.88
2023-12-18T10:35:24.047Z,4.82
2023-12-18T10:38:11.381Z,5.65
2023-12-18T10:40:38.790Z,4.82
2023-12-18T10:43:38.751Z,5.95
2023-12-18T10:46:05.710Z,5.43
2023-12-18T10:48:32.637Z,6.22
2023-12-18T10:51:06.949Z,5.40
2023-12-18T10:53:36.519Z,5.38
2023-12-18T10:56:07.103Z,5.80
2023-12-18T10:58:35.925Z,5.43
2023-12-18T11:01:08.628Z,5.20
2023-12-18T11:03:37.862Z,5.95
2023-12-18T11:06:10.128Z,5.57
2023-12-18T11:08:37.608Z,5.82
2023-12-18T11:11:10.229Z,6.28
2023-12-18T11:14:06.133Z,6.40
2023-12-18T11:20:37.233Z,5.78
2023-12-18T11:23:04.851Z,5.22
2023-12-18T11:25:41.504Z,5.25
2023-12-18T11:28:08.652Z,5.25
2023-12-18T11:30:44.703Z,6.57
2023-12-18T11:33:17.488Z,6.53
2023-12-18T11:35:48.770Z,6.93
2023-12-18T11:41:44.077Z,5.60
2023-12-18T11:44:15.085Z,5.63
2023-12-18T11:47:06.668Z,5.90
2023-12-18T11:49:43.561Z,6.55
2023-12-18T11:52:20.804Z,5.25
2023-12-18T11:54:50.024Z,6.10
2023-12-18T11:57:41.573Z,5.35
2023-12-18T12:00:08.719Z,5.53
2023-12-18T12:02:35.543Z,5.70
2023-12-18T12:05:05.558Z,5.22
2023-12-18T12:08:02.641Z,4.68
2023-12-18T12:10:41.113Z,5.38
2023-12-18T12:13:18.722Z,5.88
2023-12-18T12:15:57.900Z,5.38
2023-12-18T12:18:31.565Z,5.88
2023-12-18T12:20:58.683Z,5.65
2023-12-18T12:23:29.194Z,5.55
2023-12-18T12:26:04.657Z,5.07
2023-12-18T12:28:56.398Z,4.78
2023-12-18T12:31:23.243Z,5.47
2023-12-18T12:34:13.216Z,5.43
2023-12-18T12:36:59.388Z,5.78
2023-12-18T12:40:03.819Z,5.65
2023-12-18T12:42:48.739Z,5.32
2023-12-18T12:45:45.280Z,4.70
2023-12-18T12:48:39.656Z,5.43
2023-12-18T12:51:12.573Z,4.55
2023-12-18T12:53:40.294Z,4.40
2023-12-18T12:56:13.003Z,4.75
2023-12-18T13:10:44.911Z,4.70
2023-12-18T13:13:40.464Z,4.32
2023-12-18T13:16:10.978Z,4.63
2023-12-18T13:22:52.533Z,5.18
2023-12-18T13:33:14.804Z,5.13
2023-12-18T13:35:41.745Z,4.38
2023-12-18T13:38:13.457Z,5.25
2023-12-18T13:41:01.734Z,5.20
2023-12-18T13:43:53.663Z,5.85
2023-12-18T13:50:31.658Z,5.32
2023-12-18T13:57:46.425Z,4.32
2023-12-18T14:00:15.907Z,4.95
2023-12-18T14:03:22.666Z,5.07
2023-12-18T14:05:49.684Z,5.97
2023-12-18T14:08:16.899Z,4.18
2023-12-18T14:10:43.780Z,4.95
2023-12-18T14:13:16.510Z,5.70
2023-12-18T14:19:46.699Z,4.88
2023-12-18T14:22:16.111Z,4.95
2023-12-18T14:24:42.763Z,4.13
2023-12-18T14:27:15.236Z,5.55
2023-12-18T14:29:43.908Z,5.68
2023-12-18T14:33:09.806Z,5.22
2023-12-18T14:36:49.183Z,4.78
2023-12-18T14:39:18.396Z,4.03
2023-12-18T14:41:47.675Z,4.78
2023-12-18T14:44:14.436Z,5.85
2023-12-18T14:46:44.135Z,5.28
2023-12-18T14:49:12.580Z,5.57
2023-12-18T14:51:39.358Z,5.53
2023-12-18T14:54:24.847Z,5.70
2023-12-18T14:57:00.850Z,5.45
2023-12-18T15:03:19.829Z,4.85
2023-12-18T15:05:49.493Z,4.47
2023-12-18T15:09:10.317Z,4.85
2023-12-18T15:12:02.894Z,5.85
2023-12-18T15:14:55.575Z,5.30
2023-12-18T15:17:28.880Z,5.28
2023-12-18T15:19:55.598Z,5.65
2023-12-18T15:22:23.822Z,5.50
2023-12-18T15:24:51.877Z,6.60
2023-12-18T15:27:18.667Z,5.05
2023-12-18T15:29:45.435Z,5.18
2023-12-18T15:32:12.854Z,5.95
2023-12-18T15:34:39.518Z,5.50
2023-12-18T15:37:06.920Z,5.68
2023-12-18T15:39:59.512Z,6.50
2023-12-18T15:42:26.421Z,5.53
2023-12-18T15:44:52.989Z,5.72
2023-12-18T15:54:56.885Z,5.03
2023-12-18T15:57:42.100Z,4.95
2023-12-18T16:00:12.606Z,5.85
2023-12-18T16:02:43.882Z,5.80
2023-12-18T16:05:17.126Z,5.93
2023-12-18T16:07:45.524Z,5.93
2023-12-18T16:10:21.080Z,6.18
2023-12-18T16:16:30.244Z,5.85
2023-12-18T16:18:57.947Z,5.78
2023-12-18T16:25:49.964Z,5.70
2023-12-18T16:28:34.183Z,6.63
2023-12-18T16:31:26.749Z,6.45
2023-12-18T16:33:53.659Z,6.50
2023-12-18T16:36:23.090Z,6.75
2023-12-18T16:38:49.669Z,6.18
2023-12-18T16:41:17.802Z,6.07
2023-12-18T16:43:53.088Z,5.90
2023-12-18T16:46:19.638Z,6.68
2023-12-18T16:48:46.348Z,6.82
2023-12-18T16:51:13.358Z,6.30
2023-12-18T16:53:40.284Z,7.00
2023-12-18T16:56:07.091Z,5.93
2023-12-18T16:58:35.812Z,6.25
2023-12-18T17:01:04.693Z,7.22
2023-12-18T17:03:38.706Z,6.32
2023-12-18T17:10:27.853Z,6.53
2023-12-18T17:15:35.347Z,7.15
2023-12-18T17:18:51.597Z,6.65
2023-12-18T17:21:18.746Z,6.82
2023-12-18T17:23:45.817Z,7.53
2023-12-18T17:26:12.647Z,7.78
2023-12-18T17:28:39.145Z,9.35
2023-12-18T17:31:08.236Z,8.52
2023-12-18T17:33:45.180Z,8.10
2023-12-18T17:36:38.600Z,8.18
2023-12-18T17:39:15.046Z,8.85
2023-12-18T17:42:12.720Z,8.02
2023-12-18T17:44:39.293Z,8.32
2023-12-18T17:47:05.891Z,8.30
2023-12-18T17:49:33.741Z,8.35
2023-12-18T17:52:03.041Z,8.20
2023-12-18T17:54:29.593Z,9.75
2023-12-18T17:56:56.238Z,8.65
2023-12-18T17:59:23.695Z,8.30
2023-12-18T18:01:59.560Z,8.40
2023-12-18T18:04:26.188Z,8.65
2023-12-18T18:06:58.636Z,7.97
2023-12-18T18:09:50.536Z,9.23
2023-12-18T18:12:17.520Z,7.95
2023-12-18T18:14:46.433Z,7.78
2023-12-18T18:17:14.499Z,7.68
2023-12-18T18:19:42.995Z,8.10
2023-12-18T18:22:11.067Z,7.18
2023-12-18T18:24:38.889Z,8.85
2023-12-18T18:34:33.106Z,8.60
2023-12-18T18:37:05.841Z,7.50
2023-12-18T18:39:33.261Z,8.63
2023-12-18T18:42:00.038Z,7.30
2023-12-18T18:44:29.486Z,9.75
2023-12-18T18:46:56.067Z,9.20
2023-12-18T18:49:23.057Z,9.07
2023-12-18T18:51:50.192Z,9.55
2023-12-18T18:54:16.841Z,9.07
2023-12-18T18:56:43.458Z,8.20
2023-12-18T18:59:11.688Z,9.40
2023-12-18T19:01:38.566Z,9.23
2023-12-18T19:04:09.571Z,8.75
2023-12-18T19:06:40.110Z,9.02
2023-12-18T19:11:45.484Z,8.90
2023-12-18T19:14:18.416Z,8.90
2023-12-18T19:16:48.381Z,8.25
2023-12-18T19:19:15.162Z,8.32
2023-12-18T19:21:58.283Z,8.27
2023-12-18T19:24:28.455Z,8.13
2023-12-18T19:27:00.172Z,8.25
2023-12-18T19:29:26.909Z,8.73
2023-12-18T19:31:55.372Z,8.45
2023-12-18T19:34:22.189Z,9.02
2023-12-18T19:36:48.998Z,7.55
2023-12-18T19:39:15.790Z,7.72
2023-12-18T19:42:17.074Z,9.20
2023-12-18T19:44:48.403Z,8.57
2023-12-18T19:47:34.479Z,8.63
2023-12-18T19:50:32.437Z,8.52
2023-12-18T19:52:58.487Z,9.00
2023-12-18T19:55:46.829Z,8.85
2023-12-18T19:58:38.111Z,8.27
2023-12-18T20:01:04.994Z,9.40
2023-12-18T20:03:33.192Z,9.60
2023-12-18T20:06:00.034Z,9.13
2023-12-18T20:08:26.909Z,9.52
2023-12-18T20:10:55.280Z,9.90
2023-12-18T20:13:25.848Z,8.20
2023-12-18T20:16:01.162Z,10.35
2023-12-18T20:18:28.190Z,9.80
2023-12-18T20:20:59.655Z,10.38
2023-12-18T20:23:30.388Z,10.05
2023-12-18T20:25:57.095Z,9.25
2023-12-18T20:28:26.845Z,9.45
2023-12-18T20:31:14.216Z,8.90
2023-12-18T20:33:43.539Z,8.70
2023-12-18T20:36:10.769Z,9.25
2023-12-18T20:39:16.206Z,9.23
2023-12-18T20:41:43.793Z,8.57
2023-12-18T20:44:18.411Z,9.60
2023-12-18T20:46:45.682Z,8.93
2023-12-18T20:49:18.890Z,8.75
2023-12-18T20:51:48.880Z,9.60
2023-12-18T20:54:21.373Z,9.55
2023-12-18T20:57:17.498Z,9.45
2023-12-18T21:03:57.043Z,9.68
2023-12-18T21:06:28.753Z,8.27
2023-12-18T21:09:01.547Z,9.02
2023-12-18T21:11:57.185Z,9.88
2023-12-18T21:14:30.498Z,9.32
2023-12-18T21:17:02.902Z,10.15
2023-12-18T21:19:40.848Z,10.27
2023-12-18T21:22:07.993Z,9.35
2023-12-18T21:24:34.683Z,9.00
2023-12-18T21:27:01.255Z,10.40
2023-12-18T21:29:27.786Z,10.40
2023-12-18T21:31:54.354Z,9.40
2023-12-18T21:34:21.006Z,9.32
2023-12-18T21:36:51.347Z,9.93
2023-12-18T21:39:18.589Z,9.77
2023-12-18T21:41:45.154Z,10.02
2023-12-18T21:44:16.264Z,10.05
2023-12-18T21:46:43.183Z,10.52
2023-12-18T21:49:09.870Z,9.93
2023-12-18T21:51:43.508Z,9.50
2023-12-18T21:54:10.754Z,8.75
2023-12-18T21:56:37.255Z,10.05
2023-12-18T21:59:03.774Z,9.50
2023-12-18T22:01:36.937Z,10.32
2023-12-18T22:04:05.954Z,9.68
2023-12-18T22:06:34.539Z,9.90
2023-12-18T22:09:02.556Z,9.77
2023-12-18T22:11:29.073Z,10.10
2023-12-18T22:13:55.601Z,9.30
2023-12-18T22:16:24.181Z,10.38
2023-12-18T22:18:51.498Z,9.68
2023-12-18T22:21:18.186Z,9.93
2023-12-18T22:23:45.024Z,9.98
2023-12-18T22:26:13.111Z,9.23
2023-12-18T22:28:47.578Z,8.50
2023-12-18T22:31:14.459Z,9.50
2023-12-18T22:33:41.197Z,9.38
2023-12-18T22:36:07.937Z,9.18
2023-12-18T22:38:34.581Z,9.00
2023-12-18T22:41:02.457Z,8.95
2023-12-18T22:43:29.056Z,9.20
2023-12-18T22:45:57.141Z,10.85
2023-12-18T22:48:23.920Z,10.07
2023-12-18T22:50:50.588Z,8.52
2023-12-18T22:53:20.608Z,10.48
2023-12-18T22:55:48.693Z,9.57
2023-12-18T22:58:15.395Z,11.05
2023-12-18T23:00:42.073Z,10.23
2023-12-18T23:03:08.814Z,9.50
2023-12-18T23:05:36.243Z,9.68
2023-12-18T23:08:04.142Z,10.68
2023-12-18T23:10:30.648Z,8.38
2023-12-18T23:12:57.406Z,10.43
2023-12-18T23:15:24.136Z,9.35
2023-12-18T23:17:50.728Z,9.45
2023-12-18T23:20:20.373Z,9.50
2023-12-18T23:22:47.156Z,10.05
2023-12-18T23:25:13.985Z,10.20
2023-12-18T23:27:43.198Z,10.93
2023-12-18T23:30:11.419Z,9.90
2023-12-18T23:32:38.129Z,10.18
2023-12-18T23:35:07.583Z,8.77
2023-12-18T23:37:34.338Z,8.90
2023-12-18T23:40:01.647Z,10.13
2023-12-18T23:42:29.127Z,9.40
2023-12-18T23:44:55.659Z,8.57
2023-12-18T23:47:22.102Z,8.90
2023-12-18T23:49:48.556Z,9.88
2023-12-18T23:52:15.088Z,9.48
2023-12-18T23:54:42.180Z,9.48
2023-12-18T23:57:09.209Z,9.40
2023-12-18T23:59:35.933Z,8.90
